createdAt,value
2019-05-19T00:00:34.778Z,92.10
2019-05-19T00:06:37.164Z,92.40
2019-05-19T00:12:39.392Z,92.70
2019-05-19T00:18:41.533Z,92.80
2019-05-19T00:24:43.692Z,92.80
2019-05-19T00:30:45.812Z,93.00
2019-05-19T00:36:47.967Z,92.80
2019-05-19T00:42:50.135Z,93.00
2019-05-19T00:48:52.251Z,93.70
2019-05-19T00:54:54.449Z,93.80
2019-05-19T01:00:56.748Z,94.00
2019-05-19T01:06:59.217Z,94.20
2019-05-19T01:13:03.624Z,94.40
2019-05-19T01:19:05.844Z,94.50
2019-05-19T01:25:08.686Z,94.70
2019-05-19T01:31:10.848Z,94.60
2019-05-19T01:37:12.995Z,94.90
2019-05-19T01:43:15.296Z,95.00
2019-05-19T01:49:17.420Z,95.20
2019-05-19T01:55:19.708Z,95.30
2019-05-19T02:01:22.026Z,95.30
2019-05-19T02:07:24.342Z,95.10
2019-05-19T02:13:31.258Z,95.20
2019-05-19T02:19:33.665Z,95.20
2019-05-19T02:25:38.355Z,95.60
2019-05-19T02:31:40.552Z,95.40
2019-05-19T02:37:42.800Z,95.70
2019-05-19T02:43:46.860Z,96.20
2019-05-19T02:49:49.787Z,96.10
2019-05-19T02:55:52.280Z,96.10
2019-05-19T03:02:08.649Z,96.30
2019-05-19T03:08:30.316Z,96.40
2019-05-19T03:14:36.397Z,96.50
2019-05-19T03:20:38.618Z,96.60
2019-05-19T03:26:40.876Z,96.40
2019-05-19T03:32:46.033Z,95.90
2019-05-19T03:38:48.316Z,95.90
2019-05-19T03:44:52.595Z,96.00
2019-05-19T03:50:54.771Z,95.80
2019-05-19T03:56:57.083Z,95.10
2019-05-19T04:02:59.249Z,94.80
2019-05-19T04:09:01.400Z,94.70
2019-05-19T04:15:03.951Z,95.00
2019-05-19T04:21:06.153Z,95.00
2019-05-19T04:27:08.423Z,94.40
2019-05-19T04:33:10.614Z,93.80
2019-05-19T04:39:12.835Z,93.80
2019-05-19T04:45:15.368Z,94.20
2019-05-19T04:51:17.658Z,94.80
2019-05-19T04:57:19.818Z,94.50
2019-05-19T05:03:22.056Z,94.00
2019-05-19T05:09:24.179Z,92.60
2019-05-19T05:15:26.460Z,91.70
2019-05-19T05:21:29.028Z,91.20
2019-05-19T05:27:31.483Z,90.80
2019-05-19T05:33:33.843Z,90.50
2019-05-19T05:39:36.317Z,90.00
2019-05-19T05:45:38.535Z,88.90
2019-05-19T05:51:40.874Z,84.80
2019-05-19T05:57:43.187Z,76.80
2019-05-19T06:03:45.435Z,68.10
2019-05-19T06:09:47.708Z,59.70
2019-05-19T06:15:49.931Z,53.20
2019-05-19T06:21:52.751Z,47.80
2019-05-19T06:27:55.109Z,44.30
2019-05-19T06:33:57.583Z,46.40
2019-05-19T06:39:59.844Z,48.40
2019-05-19T06:46:02.132Z,47.40
2019-05-19T06:52:04.471Z,43.50
2019-05-19T06:58:08.879Z,41.90
2019-05-19T07:04:11.187Z,42.80
2019-05-19T07:10:13.807Z,44.40
2019-05-19T07:16:17.148Z,44.30
2019-05-19T07:22:19.645Z,47.10
2019-05-19T07:28:23.046Z,47.40
2019-05-19T07:34:25.244Z,47.40
2019-05-19T07:40:27.475Z,43.50
2019-05-19T07:46:29.873Z,42.90
2019-05-19T07:52:32.279Z,42.00
2019-05-19T07:58:34.643Z,39.70
2019-05-19T08:04:36.936Z,38.50
2019-05-19T08:10:39.107Z,44.10
2019-05-19T08:16:41.512Z,49.20
2019-05-19T08:22:43.709Z,49.90
2019-05-19T08:28:45.874Z,45.40
2019-05-19T08:34:49.416Z,44.50
2019-05-19T08:40:53.019Z,47.60
2019-05-19T08:46:55.714Z,49.50
2019-05-19T08:52:58.369Z,49.00
2019-05-19T08:59:00.632Z,48.00
2019-05-19T09:05:03.809Z,48.40
2019-05-19T09:11:06.075Z,50.40
2019-05-19T09:17:08.445Z,52.10
2019-05-19T09:23:10.836Z,51.00
2019-05-19T09:29:13.608Z,51.10
2019-05-19T09:35:16.140Z,46.60
2019-05-19T09:41:18.586Z,46.30
2019-05-19T09:47:20.980Z,44.00
2019-05-19T09:53:23.391Z,40.50
2019-05-19T09:59:25.892Z,43.10
2019-05-19T10:05:28.286Z,45.50
2019-05-19T10:12:00.122Z,46.20
2019-05-19T10:18:02.446Z,45.60
2019-05-19T10:24:06.080Z,45.40
2019-05-19T10:30:09.633Z,45.40
2019-05-19T10:36:12.187Z,45.50
2019-05-19T10:42:14.514Z,47.40
2019-05-19T10:48:16.793Z,46.00
2019-05-19T10:54:19.096Z,43.80
2019-05-19T11:00:21.410Z,47.80
2019-05-19T11:06:23.770Z,48.60
2019-05-19T11:12:26.077Z,47.00
2019-05-19T11:18:28.446Z,45.60
2019-05-19T11:24:30.735Z,47.50
2019-05-19T11:30:32.946Z,49.50
2019-05-19T11:36:35.240Z,50.80
2019-05-19T11:42:37.692Z,51.40
2019-05-19T11:48:41.074Z,50.40
2019-05-19T11:54:43.228Z,48.30
2019-05-19T12:00:45.537Z,48.70
2019-05-19T12:06:48.738Z,48.50
2019-05-19T12:12:51.207Z,48.00
2019-05-19T12:18:56.837Z,47.30
2019-05-19T12:24:57.440Z,48.50
2019-05-19T12:30:59.781Z,48.60
2019-05-19T12:37:02.108Z,47.20
2019-05-19T12:43:04.432Z,49.30
2019-05-19T12:49:06.908Z,45.80
2019-05-19T12:55:09.582Z,47.40
2019-05-19T13:01:12.047Z,47.10
2019-05-19T13:07:14.531Z,46.50
2019-05-19T13:13:17.000Z,47.40
2019-05-19T13:19:19.339Z,47.30
2019-05-19T13:25:21.551Z,45.70
2019-05-19T13:31:23.885Z,46.20
2019-05-19T13:37:26.264Z,45.10
2019-05-19T13:43:28.720Z,47.40
2019-05-19T13:49:31.149Z,49.20
2019-05-19T13:55:34.179Z,49.80
2019-05-19T14:01:37.306Z,50.50
2019-05-19T14:07:39.743Z,51.00
2019-05-19T14:13:42.313Z,51.20
2019-05-19T14:19:44.637Z,52.30
2019-05-19T14:25:46.976Z,53.80
2019-05-19T14:31:49.245Z,53.40
2019-05-19T14:37:51.633Z,53.10
2019-05-19T14:43:54.162Z,57.00
2019-05-19T14:49:56.483Z,56.80
2019-05-19T14:56:01.143Z,57.80
2019-05-19T15:02:03.554Z,57.10
2019-05-19T15:08:05.840Z,56.70
2019-05-19T15:14:07.989Z,57.30
2019-05-19T15:20:10.968Z,59.30
2019-05-19T15:26:14.262Z,59.90
2019-05-19T15:32:16.851Z,61.70
2019-05-19T15:38:19.416Z,63.90
2019-05-19T15:44:22.257Z,64.60
2019-05-19T15:50:25.038Z,63.90
2019-05-19T15:56:27.485Z,63.00
2019-05-19T16:02:29.803Z,63.70
2019-05-19T16:08:32.226Z,63.80
2019-05-19T16:14:34.619Z,63.60
2019-05-19T16:20:36.941Z,63.90
2019-05-19T16:26:39.361Z,64.20
2019-05-19T16:32:41.823Z,64.00
2019-05-19T16:38:44.184Z,63.90
2019-05-19T16:44:46.566Z,64.90
2019-05-19T16:50:49.028Z,64.60
2019-05-19T16:56:51.575Z,63.40
2019-05-19T17:02:54.141Z,64.90
2019-05-19T17:08:56.505Z,64.30
2019-05-19T17:14:58.720Z,63.10
2019-05-19T17:21:01.297Z,64.50
2019-05-19T17:27:05.977Z,65.50
2019-05-19T17:33:08.266Z,66.10
2019-05-19T17:39:10.796Z,66.70
2019-05-19T17:45:14.391Z,67.80
2019-05-19T17:51:17.775Z,67.90
2019-05-19T17:57:20.236Z,69.10
2019-05-19T18:03:24.433Z,69.80
2019-05-19T18:09:26.765Z,70.70
2019-05-19T18:15:29.072Z,71.60
2019-05-19T18:21:31.345Z,71.40
2019-05-19T18:27:33.951Z,71.80
2019-05-19T18:33:36.272Z,71.00
2019-05-19T18:39:38.566Z,70.30
2019-05-19T18:45:40.898Z,69.60
2019-05-19T18:51:43.241Z,69.40
2019-05-19T18:57:45.581Z,70.20
2019-05-19T19:03:48.057Z,70.70
2019-05-19T19:09:50.417Z,71.40
2019-05-19T19:15:52.645Z,72.70
2019-05-19T19:21:55.108Z,74.30
2019-05-19T19:27:57.615Z,75.30
2019-05-19T19:33:59.988Z,76.30
2019-05-19T19:40:03.855Z,76.60
2019-05-19T19:46:06.345Z,77.10
2019-05-19T19:52:09.880Z,78.50
2019-05-19T19:58:12.149Z,79.70
2019-05-19T20:04:14.621Z,80.10
2019-05-19T20:10:16.941Z,82.40
2019-05-19T20:16:19.479Z,81.80
2019-05-19T20:22:23.235Z,83.90
2019-05-19T20:28:25.735Z,85.60
2019-05-19T20:34:28.090Z,86.90
2019-05-19T20:40:30.488Z,89.00
2019-05-19T20:46:33.049Z,89.90
2019-05-19T20:52:35.421Z,90.50
2019-05-19T20:58:37.896Z,91.00
2019-05-19T21:04:40.787Z,91.20
2019-05-19T21:10:43.141Z,91.30
2019-05-19T21:16:45.391Z,91.80
2019-05-19T21:22:47.748Z,92.00
2019-05-19T21:28:50.065Z,92.70
2019-05-19T21:34:52.465Z,92.90
2019-05-19T21:40:54.884Z,93.50
2019-05-19T21:46:57.151Z,93.70
2019-05-19T21:52:59.481Z,93.90
2019-05-19T21:59:01.737Z,93.90
2019-05-19T22:05:04.124Z,94.10
2019-05-19T22:11:06.549Z,94.70
2019-05-19T22:17:08.782Z,94.70
2019-05-19T22:23:11.018Z,94.60
2019-05-19T22:29:13.357Z,95.00
2019-05-19T22:35:15.615Z,95.20
2019-05-19T22:41:17.952Z,95.30
2019-05-19T22:47:20.319Z,95.60
2019-05-19T22:53:23.093Z,96.20
2019-05-19T22:59:25.457Z,96.70
2019-05-19T23:05:27.863Z,96.60
2019-05-19T23:11:30.291Z,96.80
2019-05-19T23:17:32.548Z,96.80
2019-05-19T23:23:34.986Z,97.00
2019-05-19T23:29:37.187Z,97.20
2019-05-19T23:35:39.630Z,97.30
2019-05-19T23:41:41.989Z,97.60
2019-05-19T23:47:44.250Z,97.70
2019-05-19T23:53:46.539Z,97.50
2019-05-19T23:59:48.894Z,97.70
